Time;durP1;ratioP1;P1;durP2;ratioP2;P2;SDS_P1;SDS_P2;PMS_P1;PMS_P2;Temp;Humidity;BMP_temperature;BMP_pressure;BME280_temperature;BME280_humidity;BME280_pressure;Samples;Min_cycle;Max_cycle;Signal;HPM_P1;HPM_P2
2020/12/13 00:01:39;;;;;;;57.87;38.73;;;;;;;;;;5082477;28;20101;-62
2020/12/13 00:04:05;;;;;;;55.07;37.83;;;;;;;;;;5082657;28;20039;-62
2020/12/13 00:06:31;;;;;;;57.53;37.20;;;;;;;;;;5079139;28;20054;-62
2020/12/13 00:08:58;;;;;;;55.43;35.90;;;;;;;;;;5084214;28;20039;-62
2020/12/13 00:11:24;;;;;;;55.00;36.70;;;;;;;;;;5087341;28;20024;-62
2020/12/13 00:13:50;;;;;;;58.17;36.57;;;;;;;;;;5083036;28;20024;-62
2020/12/13 00:16:16;;;;;;;54.30;37.60;;;;;;;;;;5083025;28;20032;-62
2020/12/13 00:18:43;;;;;;;52.57;36.03;;;;;;;;;;5082527;28;20081;-62
2020/12/13 00:21:16;;;;;;;43.17;31.93;;;;;;;;;;5091096;28;20020;-62
2020/12/13 00:23:42;;;;;;;48.23;32.60;;;;;;;;;;5089169;28;20135;-62
2020/12/13 00:26:08;;;;;;;50.43;35.03;;;;;;;;;;5085240;28;20107;-62
2020/12/13 00:28:35;;;;;;;47.57;32.67;;;;;;;;;;5079888;28;20080;-62
2020/12/13 00:31:02;;;;;;;49.13;34.10;;;;;;;;;;5080570;28;20029;-62
2020/12/13 00:33:28;;;;;;;44.40;33.00;;;;;;;;;;5081801;28;20502;-62
2020/12/13 00:35:54;;;;;;;50.67;35.27;;;;;;;;;;5081460;28;20065;-61
2020/12/13 00:38:21;;;;;;;49.83;34.20;;;;;;;;;;5083813;28;20351;-62
2020/12/13 00:40:49;;;;;;;52.20;35.77;;;;;;;;;;5081489;28;20047;-62
2020/12/13 00:43:15;;;;;;;51.17;36.00;;;;;;;;;;5084435;28;20078;-61
2020/12/13 00:45:42;;;;;;;50.50;35.40;;;;;;;;;;5082407;28;20125;-61
2020/12/13 00:48:09;;;;;;;64.47;37.23;;;;;;;;;;5081916;28;20028;-61
2020/12/13 00:50:36;;;;;;;52.63;37.13;;;;;;;;;;5082577;28;20024;-62
2020/12/13 00:53:03;;;;;;;57.83;34.97;;;;;;;;;;5083174;28;20086;-61
2020/12/13 00:55:29;;;;;;;62.10;38.47;;;;;;;;;;5080593;28;20029;-62
2020/12/13 00:57:55;;;;;;;54.97;35.60;;;;;;;;;;5086434;28;20028;-61
2020/12/13 01:00:20;;;;;;;50.93;35.63;;;;;;;;;;5079305;28;20384;-61
2020/12/13 01:02:47;;;;;;;52.90;35.73;;;;;;;;;;5084043;28;20076;-61
2020/12/13 01:05:13;;;;;;;54.07;36.23;;;;;;;;;;5085677;28;20023;-62
2020/12/13 01:07:39;;;;;;;51.00;36.00;;;;;;;;;;5089864;28;20470;-62
2020/12/13 01:10:05;;;;;;;53.63;34.90;;;;;;;;;;5085593;28;20488;-62
2020/12/13 01:12:31;;;;;;;48.87;33.87;;;;;;;;;;5084773;28;20031;-63
2020/12/13 01:14:58;;;;;;;58.77;36.13;;;;;;;;;;5088746;28;20056;-62
2020/12/13 01:17:24;;;;;;;64.80;35.90;;;;;;;;;;5085987;28;20116;-62
2020/12/13 01:19:50;;;;;;;47.73;34.00;;;;;;;;;;5078819;28;20025;-62
2020/12/13 01:22:16;;;;;;;48.67;35.20;;;;;;;;;;5085738;28;20047;-62
2020/12/13 01:24:42;;;;;;;52.53;36.23;;;;;;;;;;5078155;28;20485;-62
2020/12/13 01:27:08;;;;;;;49.47;34.07;;;;;;;;;;5079465;28;20032;-62
2020/12/13 01:29:34;;;;;;;56.07;35.10;;;;;;;;;;5088882;28;20056;-62
2020/12/13 01:32:01;;;;;;;49.67;34.07;;;;;;;;;;5082414;28;20024;-62
2020/12/13 01:34:27;;;;;;;51.73;34.90;;;;;;;;;;5082549;28;20056;-63
2020/12/13 01:36:53;;;;;;;54.60;34.73;;;;;;;;;;5075393;28;20079;-62
2020/12/13 01:39:19;;;;;;;47.53;32.70;;;;;;;;;;5083205;28;20040;-62
2020/12/13 01:41:45;;;;;;;49.87;33.13;;;;;;;;;;5081302;28;20102;-62
2020/12/13 01:44:11;;;;;;;46.30;32.97;;;;;;;;;;5085987;28;20036;-62
2020/12/13 01:46:38;;;;;;;54.63;34.63;;;;;;;;;;5080815;28;20024;-62
2020/12/13 01:49:07;;;;;;;49.20;33.70;;;;;;;;;;5081677;28;20790;-63
2020/12/13 01:54:14;;;;;;;66.87;38.57;;;;;;;;;;5085162;28;20048;-63
2020/12/13 01:56:46;;;;;;;58.73;36.10;;;;;;;;;;5078785;28;20047;-63
2020/12/13 01:59:15;;;;;;;62.30;37.73;;;;;;;;;;5086035;28;20045;-62
2020/12/13 02:01:42;;;;;;;60.50;36.83;;;;;;;;;;5081766;28;20059;-63
2020/12/13 02:04:08;;;;;;;58.00;35.83;;;;;;;;;;5083433;28;21812;-62
2020/12/13 02:06:35;;;;;;;52.73;33.30;;;;;;;;;;5075089;28;21884;-62
2020/12/13 02:09:01;;;;;;;62.47;36.93;;;;;;;;;;5083441;28;20451;-62
2020/12/13 02:11:31;;;;;;;65.43;36.57;;;;;;;;;;5080140;28;20508;-63
2020/12/13 02:13:57;;;;;;;56.70;38.17;;;;;;;;;;5077542;28;20025;-62
2020/12/13 02:16:23;;;;;;;53.63;33.93;;;;;;;;;;5083985;28;20024;-62
2020/12/13 02:18:49;;;;;;;49.73;33.20;;;;;;;;;;5079029;28;20529;-62
2020/12/13 02:21:15;;;;;;;57.37;35.47;;;;;;;;;;5080355;28;20039;-62
2020/12/13 02:23:42;;;;;;;49.13;33.97;;;;;;;;;;5074948;28;20035;-62
2020/12/13 02:26:15;;;;;;;49.93;33.17;;;;;;;;;;5078348;28;20033;-62
2020/12/13 02:28:42;;;;;;;45.70;31.87;;;;;;;;;;5079393;28;20024;-62
2020/12/13 02:31:08;;;;;;;52.00;33.57;;;;;;;;;;5087094;28;20028;-62
2020/12/13 02:33:37;;;;;;;46.43;34.23;;;;;;;;;;5080310;28;20358;-62
2020/12/13 02:36:06;;;;;;;45.00;32.30;;;;;;;;;;5079653;28;20020;-62
2020/12/13 02:38:32;;;;;;;49.63;32.93;;;;;;;;;;5078221;28;20050;-62
2020/12/13 02:40:59;;;;;;;49.10;34.00;;;;;;;;;;5083471;28;20032;-62
2020/12/13 02:43:25;;;;;;;54.33;34.07;;;;;;;;;;5082431;28;20035;-62
2020/12/13 02:45:51;;;;;;;46.13;33.50;;;;;;;;;;5082741;28;20056;-62
2020/12/13 02:48:17;;;;;;;54.60;33.70;;;;;;;;;;5079844;28;20034;-62
2020/12/13 02:50:43;;;;;;;48.93;33.13;;;;;;;;;;5083090;28;20438;-62
2020/12/13 02:53:09;;;;;;;47.20;34.03;;;;;;;;;;5075720;28;20032;-62
2020/12/13 02:55:35;;;;;;;48.97;33.77;;;;;;;;;;5080551;28;20535;-63
2020/12/13 02:58:01;;;;;;;49.97;34.90;;;;;;;;;;5085452;28;20028;-62
2020/12/13 03:00:27;;;;;;;44.80;32.80;;;;;;;;;;5072244;28;20082;-62
2020/12/13 03:02:53;;;;;;;46.90;34.87;;;;;;;;;;5083330;28;20071;-62
2020/12/13 03:05:19;;;;;;;47.27;33.03;;;;;;;;;;5074870;28;20020;-62
2020/12/13 03:07:45;;;;;;;45.13;32.50;;;;;;;;;;5083675;28;20020;-62
2020/12/13 03:10:11;;;;;;;46.90;33.67;;;;;;;;;;5079412;28;20031;-62
2020/12/13 03:12:37;;;;;;;41.63;30.53;;;;;;;;;;5084494;28;20024;-63
2020/12/13 03:15:03;;;;;;;42.87;28.77;;;;;;;;;;5072684;28;20435;-62
2020/12/13 03:17:29;;;;;;;43.27;30.70;;;;;;;;;;5083888;28;20024;-62
2020/12/13 03:19:55;;;;;;;43.37;30.53;;;;;;;;;;5086320;28;20366;-62
2020/12/13 03:22:21;;;;;;;46.40;31.47;;;;;;;;;;5085408;28;20122;-62
2020/12/13 03:24:47;;;;;;;44.60;31.67;;;;;;;;;;5076571;28;20543;-62
2020/12/13 03:27:13;;;;;;;42.63;31.37;;;;;;;;;;5077601;28;20023;-62
2020/12/13 03:29:39;;;;;;;46.27;33.60;;;;;;;;;;5074032;28;20064;-62
2020/12/13 03:32:05;;;;;;;54.27;34.90;;;;;;;;;;5079849;28;20020;-62
2020/12/13 03:34:31;;;;;;;51.67;34.90;;;;;;;;;;5080113;28;20157;-62
2020/12/13 03:36:57;;;;;;;54.83;36.00;;;;;;;;;;5077697;28;20437;-63
2020/12/13 03:39:23;;;;;;;53.70;35.93;;;;;;;;;;5078870;28;20112;-62
2020/12/13 03:41:49;;;;;;;48.47;32.73;;;;;;;;;;5076904;28;20116;-62
2020/12/13 03:44:15;;;;;;;43.60;32.63;;;;;;;;;;5083508;28;20024;-62
2020/12/13 03:46:41;;;;;;;45.27;31.47;;;;;;;;;;5080507;28;20456;-62
2020/12/13 03:49:07;;;;;;;41.30;29.70;;;;;;;;;;5080997;28;20485;-62
2020/12/13 03:51:33;;;;;;;41.33;29.30;;;;;;;;;;5077447;28;20031;-63
2020/12/13 03:53:59;;;;;;;42.57;30.37;;;;;;;;;;5077439;28;20036;-62
2020/12/13 03:56:25;;;;;;;37.97;28.90;;;;;;;;;;5078317;28;20027;-62
2020/12/13 03:58:51;;;;;;;42.57;30.70;;;;;;;;;;5081609;28;20020;-62
2020/12/13 04:01:17;;;;;;;38.47;29.17;;;;;;;;;;5077937;28;20418;-62
2020/12/13 04:03:44;;;;;;;39.67;29.57;;;;;;;;;;5077470;28;20464;-62
2020/12/13 04:06:10;;;;;;;41.60;30.20;;;;;;;;;;5078324;28;20024;-62
2020/12/13 04:08:36;;;;;;;43.23;30.97;;;;;;;;;;5080653;28;20032;-62
2020/12/13 04:11:02;;;;;;;47.20;32.47;;;;;;;;;;5083088;28;20032;-62
2020/12/13 04:13:28;;;;;;;44.43;31.53;;;;;;;;;;5076547;28;20032;-62
2020/12/13 04:15:54;;;;;;;37.87;28.20;;;;;;;;;;5082088;28;20016;-62
2020/12/13 04:18:20;;;;;;;36.80;27.63;;;;;;;;;;5075220;28;20029;-62
2020/12/13 04:20:46;;;;;;;37.57;29.47;;;;;;;;;;5076924;28;20477;-62
2020/12/13 04:23:12;;;;;;;37.10;28.30;;;;;;;;;;5079938;28;20044;-62
2020/12/13 04:25:38;;;;;;;36.90;29.17;;;;;;;;;;5080610;28;20023;-62
2020/12/13 04:28:04;;;;;;;36.63;28.47;;;;;;;;;;5081856;28;20088;-62
2020/12/13 04:30:30;;;;;;;37.73;28.03;;;;;;;;;;5077131;28;20062;-62
2020/12/13 04:32:56;;;;;;;38.07;28.73;;;;;;;;;;5076142;28;20047;-62
2020/12/13 04:35:22;;;;;;;33.03;26.83;;;;;;;;;;5080244;28;20063;-62
2020/12/13 04:37:48;;;;;;;38.00;29.23;;;;;;;;;;5077154;28;20966;-62
2020/12/13 04:40:14;;;;;;;36.60;28.37;;;;;;;;;;5079689;28;20107;-62
2020/12/13 04:42:40;;;;;;;34.00;27.50;;;;;;;;;;5080053;28;20044;-62
2020/12/13 04:45:07;;;;;;;31.47;26.60;;;;;;;;;;5078700;28;20032;-62
2020/12/13 04:47:33;;;;;;;35.57;27.93;;;;;;;;;;5076982;28;20040;-62
2020/12/13 04:50:02;;;;;;;33.40;26.20;;;;;;;;;;5078095;28;20028;-62
2020/12/13 04:52:29;;;;;;;34.53;28.23;;;;;;;;;;5076634;28;20170;-62
2020/12/13 04:54:55;;;;;;;33.30;27.17;;;;;;;;;;5080984;28;20032;-62
2020/12/13 04:57:21;;;;;;;33.67;26.47;;;;;;;;;;5081106;28;20039;-63
2020/12/13 04:59:48;;;;;;;32.17;24.17;;;;;;;;;;5075926;28;20032;-62
2020/12/13 05:02:14;;;;;;;30.90;25.63;;;;;;;;;;5085648;28;20127;-62
2020/12/13 05:04:41;;;;;;;26.83;23.00;;;;;;;;;;5077371;28;20031;-62
2020/12/13 05:07:07;;;;;;;27.10;22.50;;;;;;;;;;5081536;28;20047;-62
2020/12/13 05:09:33;;;;;;;27.60;22.80;;;;;;;;;;5077235;28;20024;-62
2020/12/13 05:11:59;;;;;;;26.30;22.20;;;;;;;;;;5083571;28;20016;-62
2020/12/13 05:14:25;;;;;;;28.77;23.00;;;;;;;;;;5082499;28;20036;-62
2020/12/13 05:17:06;;;;;;;27.50;22.73;;;;;;;;;;5086879;28;20024;-62
2020/12/13 05:19:32;;;;;;;28.80;23.30;;;;;;;;;;5080346;28;20032;-62
2020/12/13 05:21:58;;;;;;;28.53;22.90;;;;;;;;;;5086545;28;20161;-62
2020/12/13 05:24:25;;;;;;;26.50;21.47;;;;;;;;;;5076847;28;20024;-62
2020/12/13 05:26:58;;;;;;;29.00;23.27;;;;;;;;;;5087333;28;20578;-62
2020/12/13 05:29:24;;;;;;;29.67;24.13;;;;;;;;;;5081680;28;20048;-62
2020/12/13 05:31:50;;;;;;;32.57;26.10;;;;;;;;;;5082039;28;20020;-62
2020/12/13 05:34:17;;;;;;;29.67;24.47;;;;;;;;;;5080068;28;20024;-62
2020/12/13 05:36:44;;;;;;;34.30;26.30;;;;;;;;;;5083549;28;20107;-62
2020/12/13 05:39:10;;;;;;;33.40;26.60;;;;;;;;;;5082921;28;20031;-62
2020/12/13 05:41:38;;;;;;;31.77;24.93;;;;;;;;;;5080034;28;20035;-62
2020/12/13 05:44:23;;;;;;;30.17;24.50;;;;;;;;;;5080856;28;20024;-62
2020/12/13 05:47:01;;;;;;;34.65;23.35;;;;;;;;;;5079501;28;20028;-62
2020/12/13 05:52:04;;;;;;;32.23;24.53;;;;;;;;;;5076812;28;20087;-62
2020/12/13 05:54:31;;;;;;;31.70;24.70;;;;;;;;;;5087221;28;20028;-62
2020/12/13 05:57:01;;;;;;;31.60;24.83;;;;;;;;;;5081855;28;20103;-62
2020/12/13 05:59:28;;;;;;;33.67;25.50;;;;;;;;;;5082324;28;20093;-62
2020/12/13 06:01:55;;;;;;;33.37;25.80;;;;;;;;;;5075756;28;20405;-62
2020/12/13 06:04:25;;;;;;;31.07;24.00;;;;;;;;;;5082519;28;20805;-62
2020/12/13 06:06:54;;;;;;;32.83;23.97;;;;;;;;;;5078305;28;20020;-62
2020/12/13 06:09:28;;;;;;;36.47;25.33;;;;;;;;;;5086734;28;20513;-62
2020/12/13 06:11:59;;;;;;;34.50;25.75;;;;;;;;;;5080804;28;20480;-62
2020/12/13 06:14:25;;;;;;;41.63;23.90;;;;;;;;;;5081293;28;20036;-62
2020/12/13 06:16:51;;;;;;;42.07;24.83;;;;;;;;;;5077864;28;20032;-62
2020/12/13 06:19:19;;;;;;;32.87;24.63;;;;;;;;;;5084760;28;20028;-62
2020/12/13 06:21:46;;;;;;;29.50;23.40;;;;;;;;;;5079368;28;20505;-62
2020/12/13 06:24:12;;;;;;;35.13;25.10;;;;;;;;;;5085895;28;20038;-62
2020/12/13 06:26:38;;;;;;;30.97;22.70;;;;;;;;;;5077958;28;20753;-63
2020/12/13 06:29:05;;;;;;;35.87;25.97;;;;;;;;;;5083613;28;20025;-62
2020/12/13 06:31:32;;;;;;;41.47;28.20;;;;;;;;;;5077597;28;20444;-63
2020/12/13 06:33:58;;;;;;;39.00;25.73;;;;;;;;;;5081955;28;20478;-62
2020/12/13 06:36:25;;;;;;;43.37;27.67;;;;;;;;;;5085289;28;20027;-62
2020/12/13 06:38:52;;;;;;;43.07;29.77;;;;;;;;;;5079002;28;20035;-62
2020/12/13 06:41:19;;;;;;;45.73;31.87;;;;;;;;;;5086650;28;20031;-62
2020/12/13 06:43:54;;;;;;;52.30;32.23;;;;;;;;;;5076493;28;20125;-63
2020/12/13 06:46:21;;;;;;;54.20;32.37;;;;;;;;;;5080942;28;20034;-62
2020/12/13 06:48:47;;;;;;;51.37;32.90;;;;;;;;;;5076902;28;20037;-62
2020/12/13 06:51:34;;;;;;;79.97;38.20;;;;;;;;;;5079395;28;20063;-62
2020/12/13 06:54:01;;;;;;;53.70;36.60;;;;;;;;;;5080348;28;20470;-62
2020/12/13 06:56:28;;;;;;;54.20;35.30;;;;;;;;;;5081044;28;20029;-62
2020/12/13 06:58:56;;;;;;;56.53;33.73;;;;;;;;;;5078729;28;20020;-62
2020/12/13 07:01:39;;;;;;;57.63;36.37;;;;;;;;;;5081976;28;20036;-63
2020/12/13 07:04:23;;;;;;;51.63;34.07;;;;;;;;;;5080132;28;20517;-62
2020/12/13 07:07:01;;;;;;;55.65;37.35;;;;;;;;;;5077957;28;20032;-62
2020/12/13 07:09:29;;;;;;;49.37;32.90;;;;;;;;;;5078608;28;20028;-62
2020/12/13 07:11:55;;;;;;;46.77;33.10;;;;;;;;;;5083862;28;20028;-62
2020/12/13 07:14:27;;;;;;;51.93;33.70;;;;;;;;;;5076117;28;20025;-62
2020/12/13 07:19:30;;;;;;;45.70;33.60;;;;;;;;;;5078208;28;20619;-62
2020/12/13 07:22:08;;;;;;;50.03;34.23;;;;;;;;;;5078223;28;20064;-62
2020/12/13 07:24:34;;;;;;;48.77;32.87;;;;;;;;;;5078055;28;20085;-62
2020/12/13 07:27:00;;;;;;;44.73;30.57;;;;;;;;;;5077999;28;20024;-62
2020/12/13 07:29:27;;;;;;;52.27;36.07;;;;;;;;;;5076213;28;20052;-62
2020/12/13 07:31:53;;;;;;;45.50;32.53;;;;;;;;;;5083214;28;20031;-62
2020/12/13 07:34:20;;;;;;;42.17;31.17;;;;;;;;;;5076704;28;22682;-62
2020/12/13 07:36:46;;;;;;;45.23;32.00;;;;;;;;;;5077731;28;20131;-62
2020/12/13 07:39:15;;;;;;;42.00;30.07;;;;;;;;;;5079151;28;20066;-62
2020/12/13 07:41:42;;;;;;;43.57;31.23;;;;;;;;;;5091530;28;20039;-62
2020/12/13 07:44:09;;;;;;;36.27;29.07;;;;;;;;;;5086473;28;20031;-61
2020/12/13 07:46:36;;;;;;;37.97;27.07;;;;;;;;;;5083557;28;20435;-61
2020/12/13 07:49:03;;;;;;;38.27;28.07;;;;;;;;;;5081326;28;20434;-61
2020/12/13 07:51:30;;;;;;;35.53;27.43;;;;;;;;;;5079935;28;20166;-61
2020/12/13 07:53:56;;;;;;;39.30;27.77;;;;;;;;;;5087021;28;20375;-61
2020/12/13 07:56:24;;;;;;;34.23;27.07;;;;;;;;;;5083223;28;20038;-62
2020/12/13 07:58:50;;;;;;;35.97;26.43;;;;;;;;;;5081821;28;20055;-62
2020/12/13 08:01:18;;;;;;;31.93;25.53;;;;;;;;;;5081699;28;20040;-62
2020/12/13 08:03:44;;;;;;;35.60;26.27;;;;;;;;;;5081194;28;20510;-62
2020/12/13 08:06:10;;;;;;;30.90;25.13;;;;;;;;;;5078906;28;20028;-62
2020/12/13 08:08:43;;;;;;;32.30;27.17;;;;;;;;;;5080080;28;20024;-62
2020/12/13 08:11:13;;;;;;;32.17;26.23;;;;;;;;;;5081649;28;20048;-62
2020/12/13 08:13:49;;;;;;;33.57;25.67;;;;;;;;;;5082731;28;20115;-62
2020/12/13 08:16:16;;;;;;;30.43;25.17;;;;;;;;;;5080820;28;20024;-62
2020/12/13 08:18:44;;;;;;;31.93;25.67;;;;;;;;;;5090261;28;20513;-62
2020/12/13 08:21:10;;;;;;;31.37;25.77;;;;;;;;;;5080200;28;20344;-62
2020/12/13 08:23:38;;;;;;;32.70;25.13;;;;;;;;;;5082177;28;20094;-62
2020/12/13 08:26:04;;;;;;;31.87;24.77;;;;;;;;;;5076554;28;20027;-62
2020/12/13 08:28:31;;;;;;;29.37;24.20;;;;;;;;;;5082960;28;20032;-62
2020/12/13 08:30:58;;;;;;;29.37;23.87;;;;;;;;;;5084840;28;20423;-62
2020/12/13 08:33:24;;;;;;;32.97;25.53;;;;;;;;;;5081813;28;20523;-62
2020/12/13 08:35:51;;;;;;;32.63;25.17;;;;;;;;;;5073322;28;20031;-62
2020/12/13 08:38:17;;;;;;;34.87;26.03;;;;;;;;;;5078071;28;20032;-62
2020/12/13 08:40:46;;;;;;;32.40;25.00;;;;;;;;;;5083722;28;20066;-62
2020/12/13 08:43:17;;;;;;;32.77;25.50;;;;;;;;;;5083136;28;20035;-62
2020/12/13 08:45:44;;;;;;;36.80;27.00;;;;;;;;;;5081737;28;20020;-63
2020/12/13 08:48:10;;;;;;;31.67;25.73;;;;;;;;;;5082447;28;20020;-62
2020/12/13 08:50:42;;;;;;;28.57;24.33;;;;;;;;;;5083238;28;20081;-63
2020/12/13 08:53:20;;;;;;;33.07;25.23;;;;;;;;;;5082555;28;20028;-63
2020/12/13 08:55:58;;;;;;;32.57;26.47;;;;;;;;;;5086108;28;20036;-62
2020/12/13 08:58:24;;;;;;;35.27;26.77;;;;;;;;;;5074750;28;20477;-62
2020/12/13 09:00:50;;;;;;;35.60;26.90;;;;;;;;;;5085410;28;20031;-62
2020/12/13 09:03:27;;;;;;;31.70;25.03;;;;;;;;;;5078496;28;20051;-62
2020/12/13 09:05:56;;;;;;;33.73;24.87;;;;;;;;;;5083991;28;20088;-62
2020/12/13 09:08:23;;;;;;;30.70;24.63;;;;;;;;;;5083932;28;20392;-62
2020/12/13 09:10:51;;;;;;;31.20;25.23;;;;;;;;;;5086152;28;20037;-63
2020/12/13 09:13:18;;;;;;;33.27;25.60;;;;;;;;;;5079774;28;20020;-66
2020/12/13 09:15:44;;;;;;;28.90;24.77;;;;;;;;;;5087573;28;20052;-62
2020/12/13 09:18:11;;;;;;;30.53;25.00;;;;;;;;;;5083474;28;20024;-62
2020/12/13 09:20:37;;;;;;;33.97;24.47;;;;;;;;;;5080907;28;20090;-62
2020/12/13 09:23:07;;;;;;;32.10;24.73;;;;;;;;;;5080656;28;20075;-62
2020/12/13 09:25:37;;;;;;;29.50;24.23;;;;;;;;;;5077204;28;20079;-62
2020/12/13 09:28:04;;;;;;;28.73;24.97;;;;;;;;;;5083173;28;20059;-62
2020/12/13 09:30:30;;;;;;;30.03;24.40;;;;;;;;;;5079732;28;20028;-62
2020/12/13 09:32:56;;;;;;;31.40;25.87;;;;;;;;;;5081819;28;20108;-62
2020/12/13 09:35:22;;;;;;;31.50;24.40;;;;;;;;;;5077378;28;20051;-62
2020/12/13 09:37:48;;;;;;;28.43;24.67;;;;;;;;;;5084510;28;20099;-62
2020/12/13 09:40:14;;;;;;;29.23;24.70;;;;;;;;;;5076599;28;20024;-63
2020/12/13 09:42:40;;;;;;;30.37;23.97;;;;;;;;;;5085035;28;20044;-62
2020/12/13 09:45:06;;;;;;;27.83;23.73;;;;;;;;;;5078163;28;20043;-62
2020/12/13 09:47:32;;;;;;;27.67;23.90;;;;;;;;;;5087158;28;20449;-62
2020/12/13 09:49:59;;;;;;;29.23;23.60;;;;;;;;;;5078800;28;20030;-62
2020/12/13 09:52:25;;;;;;;28.57;23.67;;;;;;;;;;5083021;28;20032;-62
2020/12/13 09:54:52;;;;;;;30.27;24.23;;;;;;;;;;5080065;28;20031;-60
2020/12/13 09:57:18;;;;;;;27.73;23.97;;;;;;;;;;5083134;28;20032;-61
2020/12/13 09:59:44;;;;;;;32.60;25.53;;;;;;;;;;5073118;28;20436;-61
2020/12/13 10:02:10;;;;;;;29.57;24.50;;;;;;;;;;5075061;28;20123;-61
2020/12/13 10:04:36;;;;;;;32.40;25.27;;;;;;;;;;5074567;28;20460;-61
2020/12/13 10:09:35;;;;;;;32.53;25.73;;;;;;;;;;5075252;28;20032;-62
2020/12/13 10:12:01;;;;;;;32.83;26.53;;;;;;;;;;5071851;28;20028;-62
2020/12/13 10:14:27;;;;;;;34.00;25.67;;;;;;;;;;5075805;28;20081;-62
2020/12/13 10:16:54;;;;;;;30.73;25.20;;;;;;;;;;5071621;28;20036;-62
2020/12/13 10:19:21;;;;;;;34.23;26.30;;;;;;;;;;5075551;28;20115;-62
2020/12/13 10:21:49;;;;;;;31.07;27.10;;;;;;;;;;5071447;28;20831;-62
2020/12/13 10:24:16;;;;;;;35.10;25.80;;;;;;;;;;5074562;28;20505;-61
2020/12/13 10:26:42;;;;;;;33.40;24.93;;;;;;;;;;5070323;28;20511;-61
2020/12/13 10:29:08;;;;;;;31.93;25.47;;;;;;;;;;5074382;28;20491;-61
2020/12/13 10:31:35;;;;;;;35.10;25.23;;;;;;;;;;5071816;28;20888;-61
2020/12/13 10:34:03;;;;;;;33.37;25.50;;;;;;;;;;5074493;28;20619;-61
2020/12/13 10:36:31;;;;;;;33.03;25.30;;;;;;;;;;5069846;28;20601;-61
2020/12/13 10:38:57;;;;;;;34.93;25.63;;;;;;;;;;5074942;28;20028;-61
2020/12/13 10:41:23;;;;;;;30.33;24.20;;;;;;;;;;5071127;28;20051;-62
2020/12/13 10:43:50;;;;;;;30.17;24.70;;;;;;;;;;5073936;28;20067;-61
2020/12/13 10:46:17;;;;;;;34.10;25.70;;;;;;;;;;5074219;28;20024;-61
2020/12/13 10:48:43;;;;;;;38.10;26.73;;;;;;;;;;5071282;28;20035;-61
2020/12/13 10:51:09;;;;;;;34.80;27.37;;;;;;;;;;5075103;28;20058;-62
2020/12/13 10:53:35;;;;;;;41.90;30.00;;;;;;;;;;5071589;28;20151;-61
2020/12/13 10:56:03;;;;;;;37.67;28.73;;;;;;;;;;5073947;28;20028;-62
2020/12/13 10:58:29;;;;;;;38.03;26.93;;;;;;;;;;5070856;28;20409;-61
2020/12/13 11:00:56;;;;;;;42.73;29.70;;;;;;;;;;5074696;28;20143;-62
2020/12/13 11:03:22;;;;;;;45.77;30.73;;;;;;;;;;5070003;28;20060;-61
2020/12/13 11:05:48;;;;;;;45.30;30.33;;;;;;;;;;5073823;28;20468;-62
2020/12/13 11:08:15;;;;;;;45.93;31.97;;;;;;;;;;5070789;28;20078;-62
2020/12/13 11:10:45;;;;;;;51.53;33.70;;;;;;;;;;5076727;28;20431;-62
2020/12/13 11:13:11;;;;;;;49.40;32.10;;;;;;;;;;5070403;28;20032;-61
2020/12/13 11:15:37;;;;;;;39.00;28.67;;;;;;;;;;5074740;28;20024;-61
2020/12/13 11:18:03;;;;;;;39.17;28.53;;;;;;;;;;5071048;28;20397;-61
2020/12/13 11:20:29;;;;;;;44.53;31.27;;;;;;;;;;5074778;28;20052;-62
2020/12/13 11:22:55;;;;;;;48.87;32.20;;;;;;;;;;5073894;28;20043;-61
2020/12/13 11:25:21;;;;;;;47.37;32.23;;;;;;;;;;5076474;28;20024;-61
2020/12/13 11:27:47;;;;;;;45.37;32.47;;;;;;;;;;5074283;28;20034;-61
2020/12/13 11:30:13;;;;;;;49.83;33.40;;;;;;;;;;5070188;28;20470;-61
2020/12/13 11:32:43;;;;;;;49.27;32.93;;;;;;;;;;5075049;28;20024;-62
2020/12/13 11:35:09;;;;;;;56.00;37.87;;;;;;;;;;5072983;28;20466;-62
2020/12/13 11:37:35;;;;;;;56.10;36.70;;;;;;;;;;5075687;28;20032;-62
2020/12/13 11:40:01;;;;;;;56.47;38.17;;;;;;;;;;5072818;28;20027;-62
2020/12/13 11:42:27;;;;;;;54.23;33.70;;;;;;;;;;5088240;28;20043;-62
2020/12/13 11:44:53;;;;;;;50.63;33.97;;;;;;;;;;5079435;28;20432;-61
2020/12/13 11:47:19;;;;;;;46.20;32.03;;;;;;;;;;5077812;28;20020;-62
2020/12/13 11:49:45;;;;;;;46.53;33.23;;;;;;;;;;5072698;28;20481;-62
2020/12/13 11:52:11;;;;;;;46.93;33.13;;;;;;;;;;5082890;28;20089;-61
2020/12/13 11:54:37;;;;;;;51.77;34.63;;;;;;;;;;5075565;28;20025;-62
2020/12/13 11:57:04;;;;;;;38.50;27.73;;;;;;;;;;5081708;28;20028;-62
2020/12/13 11:59:30;;;;;;;34.90;26.53;;;;;;;;;;5079130;28;20373;-62
2020/12/13 12:01:56;;;;;;;35.33;27.80;;;;;;;;;;5083169;28;20047;-61
2020/12/13 12:04:22;;;;;;;33.83;27.40;;;;;;;;;;5083247;28;20093;-62
2020/12/13 12:06:49;;;;;;;32.53;27.33;;;;;;;;;;5075800;28;20599;-62
2020/12/13 12:09:15;;;;;;;39.50;28.57;;;;;;;;;;5084753;28;20063;-62
2020/12/13 12:11:41;;;;;;;31.17;25.43;;;;;;;;;;5076333;28;20033;-62
2020/12/13 12:14:11;;;;;;;31.53;25.83;;;;;;;;;;5076441;28;20043;-62
2020/12/13 12:16:38;;;;;;;33.83;27.00;;;;;;;;;;5072990;28;20046;-62
2020/12/13 12:19:04;;;;;;;31.60;23.87;;;;;;;;;;5086451;28;20119;-62
2020/12/13 12:21:31;;;;;;;32.67;25.23;;;;;;;;;;5074384;28;20406;-62
2020/12/13 12:23:57;;;;;;;32.83;25.70;;;;;;;;;;5081787;28;20070;-62
2020/12/13 12:26:28;;;;;;;30.70;25.07;;;;;;;;;;5077282;28;20040;-62
2020/12/13 12:28:54;;;;;;;34.27;27.23;;;;;;;;;;5081122;28;20024;-62
2020/12/13 12:31:21;;;;;;;31.53;25.33;;;;;;;;;;5073468;28;20035;-61
2020/12/13 12:33:48;;;;;;;46.80;33.50;;;;;;;;;;5079969;28;20498;-62
2020/12/13 12:36:15;;;;;;;45.53;33.37;;;;;;;;;;5076747;28;20071;-62
2020/12/13 12:38:41;;;;;;;40.20;30.47;;;;;;;;;;5079242;28;20426;-61
2020/12/13 12:41:10;;;;;;;34.23;27.13;;;;;;;;;;5076540;28;20097;-62
2020/12/13 12:43:36;;;;;;;33.00;26.67;;;;;;;;;;5079692;28;20610;-61
2020/12/13 12:46:03;;;;;;;31.37;25.60;;;;;;;;;;5078685;28;20031;-62
2020/12/13 12:48:29;;;;;;;32.90;26.37;;;;;;;;;;5080881;28;20039;-62
2020/12/13 12:50:55;;;;;;;32.67;26.10;;;;;;;;;;5080940;28;20035;-62
2020/12/13 12:53:21;;;;;;;35.50;26.93;;;;;;;;;;5072935;28;20523;-62
2020/12/13 12:55:47;;;;;;;33.47;25.83;;;;;;;;;;5079471;28;20081;-62
2020/12/13 12:58:13;;;;;;;34.77;27.57;;;;;;;;;;5073118;28;20107;-62
2020/12/13 13:03:06;;;;;;;49.43;32.87;;;;;;;;;;5071928;28;20122;-62
2020/12/13 13:08:12;;;;;;;49.07;32.60;;;;;;;;;;5075061;28;20042;-61
2020/12/13 13:10:40;;;;;;;45.57;33.40;;;;;;;;;;5077874;28;20031;-62
2020/12/13 13:13:06;;;;;;;48.30;34.33;;;;;;;;;;5080162;28;20056;-62
2020/12/13 13:18:05;;;;;;;50.83;36.63;;;;;;;;;;5076175;28;20566;-62
2020/12/13 13:20:32;;;;;;;53.90;37.27;;;;;;;;;;5081390;28;20044;-62
2020/12/13 13:22:58;;;;;;;52.83;37.10;;;;;;;;;;5074274;28;20129;-62
2020/12/13 13:25:24;;;;;;;50.90;37.23;;;;;;;;;;5077933;28;20025;-62
2020/12/13 13:27:50;;;;;;;49.80;35.57;;;;;;;;;;5082049;28;20032;-62
2020/12/13 13:30:16;;;;;;;48.87;35.07;;;;;;;;;;5077750;28;20031;-62
2020/12/13 13:32:42;;;;;;;45.93;34.33;;;;;;;;;;5076281;28;20037;-62
2020/12/13 13:35:08;;;;;;;48.77;34.57;;;;;;;;;;5072239;28;20039;-61
2020/12/13 13:37:36;;;;;;;49.77;35.33;;;;;;;;;;5075731;28;20937;-61
2020/12/13 13:40:02;;;;;;;52.10;35.70;;;;;;;;;;5072767;28;20028;-61
2020/12/13 13:42:34;;;;;;;49.43;36.40;;;;;;;;;;5076463;28;20036;-62
2020/12/13 13:50:15;;;;;;;49.10;35.93;;;;;;;;;;5071422;28;20098;-62
2020/12/13 13:52:41;;;;;;;48.23;34.27;;;;;;;;;;5074525;28;20036;-62
2020/12/13 13:57:34;;;;;;;51.53;37.10;;;;;;;;;;5074602;28;20032;-62
2020/12/13 14:00:05;;;;;;;47.00;33.03;;;;;;;;;;5072045;28;20539;-62
2020/12/13 14:02:31;;;;;;;47.73;35.70;;;;;;;;;;5075217;28;20135;-61
2020/12/13 14:04:57;;;;;;;45.50;33.33;;;;;;;;;;5069846;28;20028;-62
2020/12/13 14:09:55;;;;;;;42.43;29.27;;;;;;;;;;5071715;28;20638;-63
2020/12/13 14:12:21;;;;;;;43.17;32.60;;;;;;;;;;5075108;28;20473;-63
2020/12/13 14:14:47;;;;;;;49.50;34.10;;;;;;;;;;5071990;28;20040;-62
2020/12/13 14:17:13;;;;;;;50.70;36.47;;;;;;;;;;5075413;28;20031;-62
2020/12/13 14:19:39;;;;;;;47.73;32.23;;;;;;;;;;5075319;28;20032;-64
2020/12/13 14:22:05;;;;;;;48.43;33.63;;;;;;;;;;5070942;28;20072;-63
2020/12/13 14:24:31;;;;;;;49.50;33.93;;;;;;;;;;5076078;28;20040;-63
2020/12/13 14:26:59;;;;;;;51.43;35.63;;;;;;;;;;5076641;28;20040;-63
2020/12/13 14:29:25;;;;;;;50.80;36.77;;;;;;;;;;5075414;28;20028;-62
2020/12/13 14:31:52;;;;;;;49.43;34.27;;;;;;;;;;5071595;28;20032;-62
2020/12/13 14:34:18;;;;;;;50.47;34.97;;;;;;;;;;5076121;28;20057;-63
2020/12/13 14:36:45;;;;;;;47.73;34.23;;;;;;;;;;5073419;28;20038;-63
2020/12/13 14:39:11;;;;;;;54.07;34.77;;;;;;;;;;5075140;28;20119;-62
2020/12/13 14:41:37;;;;;;;51.03;37.37;;;;;;;;;;5071476;28;20047;-62
2020/12/13 14:44:03;;;;;;;51.43;35.90;;;;;;;;;;5076723;28;20052;-63